WetterOnline ( https://www.wetteronline.de )

Wetter aktuell Kämpfelbach

Aktuelles Wetter: Mühlacker (245m)

6-stündlich | Neueste Meldungen
Ortszeit Temperatur Wetter
Mo, 27.01. 19:00 4.4° C bewölkt
Mo, 27.01. 13:00 10.6° C bewölkt
Mo, 27.01. 7:00 -1.7° C leicht bewölkt
Mo, 27.01. 1:00 -2.7° C leicht bewölkt
So, 26.01. 19:00 -0.5° C wolkenlos
So, 26.01. 13:00 3.9° C bewölkt
So, 26.01. 7:00 -1.7° C Nebel
So, 26.01. 1:00 -2.0° C leicht bewölkt
Ortszeit Temperatur Wetter
Di, 28.01. 0:30 7.2° C leichter Regen
Di, 28.01. 0:20 7.2° C leichter Regen
Di, 28.01. 0:10 7.5° C leichter Regen
Di, 28.01. 0:00 7.4° C bedeckt
Mo, 27.01. 23:50 7.4° C bedeckt
Mo, 27.01. 23:40 7.3° C bewölkt
Mo, 27.01. 23:30 7.2° C wolkig
Mo, 27.01. 23:00 6.7° C leichter Regen
Mo, 27.01. 22:30 5.7° C Sprühregen
Mo, 27.01. 22:00 6.0° C leichter Regen
Mo, 27.01. 21:30 4.5° C leichter Regen
Ortszeit Relative Feuchte Sichtweite
Mo, 27.01. 19:00 94% 35 km
Mo, 27.01. 13:00 65% 45 km
Mo, 27.01. 7:00 100% 2.5 km
Mo, 27.01. 1:00 100% 2.1 km
So, 26.01. 19:00 99% 2.7 km
So, 26.01. 13:00 88% 4.7 km
So, 26.01. 7:00 100% 100 m
So, 26.01. 1:00 100% 2.2 km
Ortszeit Relative Feuchte Sichtweite
Di, 28.01. 0:30 81% 70 km
Di, 28.01. 0:20 81% -
Di, 28.01. 0:10 78% -
Di, 28.01. 0:00 78% 70 km
Mo, 27.01. 23:50 78% -
Mo, 27.01. 23:40 78% -
Mo, 27.01. 23:30 78% 70 km
Mo, 27.01. 23:00 82% 35 km
Mo, 27.01. 22:30 91% 70 km
Mo, 27.01. 22:00 91% 19 km
Mo, 27.01. 21:30 99% 13 km
Ortszeit Niederschlagsmenge Niederschlagsart
Mo, 27.01. 19:00 0.1 l/m2 in 12 Std. Regen
Mo, 27.01. 13:00 0.0 l/m2 in 6 Std. -
Mo, 27.01. 7:00 0.1 l/m2 in 12 Std. Sprühregen
Mo, 27.01. 1:00 0.0 l/m2 in 6 Std. -
So, 26.01. 19:00 0.0 l/m2 in 12 Std. -
So, 26.01. 13:00 0.0 l/m2 in 6 Std. -
So, 26.01. 7:00 0.0 l/m2 in 12 Std. -
So, 26.01. 1:00 0.0 l/m2 in 6 Std. -
Ortszeit Niederschlagsmenge Niederschlagsart
Di, 28.01. 0:30 0.1 l/m2 in 1 Std. -
Di, 28.01. 0:20 keine Meldung -
Di, 28.01. 0:10 keine Meldung -
Di, 28.01. 0:00 0.1 l/m2 in 1 Std. Regen
Mo, 27.01. 23:50 keine Meldung -
Mo, 27.01. 23:40 keine Meldung -
Mo, 27.01. 23:30 0.1 l/m2 in 1 Std. Schneeregen
Mo, 27.01. 23:00 0.3 l/m2 in 1 Std. Regen
Mo, 27.01. 22:30 0.2 l/m2 in 1 Std. -
Mo, 27.01. 22:00 0.4 l/m2 in 1 Std. Regen
Mo, 27.01. 21:30 0.2 l/m2 in 1 Std. -
Ortszeit Stärke Spitze Richtung
km/h Bft. km/h Grad Sektor
Mo, 27.01. 19:00 0 0 29 - -
Mo, 27.01. 13:00 6 1 20 190° S
Mo, 27.01. 7:00 2 1 9 50° NO
Mo, 27.01. 1:00 4 1 7 170° S
So, 26.01. 19:00 0 0 11 - -
So, 26.01. 13:00 0 0 11 - -
So, 26.01. 7:00 4 1 7 130° SO
So, 26.01. 1:00 4 1 4 50° NO
Ortszeit Stärke Spitze Richtung
km/h Bft. km/h Grad Sektor
Di, 28.01. 0:30 9 2 26 190° S
Di, 28.01. 0:20 9 2 - 190° S
Di, 28.01. 0:10 13 3 - 200° S
Di, 28.01. 0:00 13 3 28 200° S
Mo, 27.01. 23:50 13 3 - 200° S
Mo, 27.01. 23:40 11 2 - 200° S
Mo, 27.01. 23:30 7 2 17 200° S
Mo, 27.01. 23:00 7 2 11 190° S
Mo, 27.01. 22:30 6 1 9 110° O
Mo, 27.01. 22:00 4 1 11 200° S
Mo, 27.01. 21:30 4 1 7 90° O
Ortszeit Untergrenze Bedeckung Gattung
total tief tief mittel hoch
Mo, 27.01. 19:00 1110 m 7/8 7/8 - - -
Mo, 27.01. 13:00 1500 m 7/8 7/8 - - -
Mo, 27.01. 7:00 1500 m 2/8 2/8 - - -
Mo, 27.01. 1:00 1800 m 2/8 2/8 - - -
So, 26.01. 19:00 - 0/8 0/8 - - -
So, 26.01. 13:00 2100 m 7/8 7/8 - - -
So, 26.01. 7:00 <30 m 8/8 0/8 - - -
So, 26.01. 1:00 90 m 5/8 1/8 - - -
Ortszeit Bedeckungsgrad in Achtel und Wolkenuntergrenze
Di, 28.01. 0:30 1(930m) 6(1410m) 7(2100m)
Di, 28.01. 0:20 1(930m) 6(1410m) 7(2100m)
Di, 28.01. 0:10 2(1110m) 7(2100m) 8(2700m)
Di, 28.01. 0:00 1(1500m) 8(2700m) 8(3600m)
Mo, 27.01. 23:50 1(1500m) 8(2700m) 8(3600m)
Mo, 27.01. 23:40 2(1500m) 7(2700m) 7(3600m)
Mo, 27.01. 23:30 4(1500m) 6(1800m) 6(2700m)
Mo, 27.01. 23:00 1(1050m) 4(1380m) 7(1500m)
Mo, 27.01. 22:30 2(1050m) 5(1410m) 6(3000m)
Mo, 27.01. 22:00 3(1020m)
Mo, 27.01. 21:30 5(960m) 6(1380m)
Ortszeit Luftdruck NN (hPa) Tendenz (hPa in 3 Std.)
Mo, 27.01. 19:00 1010 - 2,4
Mo, 27.01. 13:00 1013 - 2,6
Mo, 27.01. 7:00 1018 - 0,8
Mo, 27.01. 1:00 1020 - 0,5
So, 26.01. 19:00 1020 + 0,1
So, 26.01. 13:00 1020 - 0,8
So, 26.01. 7:00 1022 0,0
So, 26.01. 1:00 1022 - 0,4
Ortszeit Luftdruck NN (hPa) Tendenz (hPa in 3 Std.)
Di, 28.01. 0:30 1004 - 2,9
Di, 28.01. 0:20 1004 keine Meldung
Di, 28.01. 0:10 1005 keine Meldung
Di, 28.01. 0:00 1005 - 3,0
Mo, 27.01. 23:50 1005 keine Meldung
Mo, 27.01. 23:40 1005 keine Meldung
Mo, 27.01. 23:30 1005 - 2,9
Mo, 27.01. 23:00 1006 - 2,6
Mo, 27.01. 22:30 1007 - 2,3
Mo, 27.01. 22:00 1007 - 2,2
Mo, 27.01. 21:30 1008 - 2,2
Ortszeit Schneehöhe (cm)
Mo, 27.01. 19:00 0
Mo, 27.01. 13:00 0
Mo, 27.01. 7:00 0
Mo, 27.01. 1:00 0
So, 26.01. 19:00 0
So, 26.01. 13:00 0
So, 26.01. 7:00 0
So, 26.01. 1:00 0
Ortszeit Schneehöhe (cm)
Di, 28.01. 0:30 0
Di, 28.01. 0:20 0
Di, 28.01. 0:10 0
Di, 28.01. 0:00 0
Mo, 27.01. 23:50 0
Mo, 27.01. 23:40 0
Mo, 27.01. 23:30 0
Mo, 27.01. 23:00 0
Mo, 27.01. 22:30 0
Mo, 27.01. 22:00 0
Mo, 27.01. 21:30 0
Link zu dieser Seite / Seite empfehlen

Das Wetter in ...